createdAt,value
2022-12-16T00:00:19.089Z,8.63
2022-12-16T00:02:47.327Z,8.60
2022-12-16T00:05:15.926Z,8.15
2022-12-16T00:07:44.209Z,7.05
2022-12-16T00:10:12.379Z,7.70
2022-12-16T00:12:40.674Z,7.80
2022-12-16T00:15:09.329Z,7.80
2022-12-16T00:17:39.753Z,7.90
2022-12-16T00:20:09.959Z,7.83
2022-12-16T00:22:38.136Z,7.37
2022-12-16T00:25:07.134Z,7.07
2022-12-16T00:27:35.398Z,7.18
2022-12-16T00:30:04.000Z,7.38
2022-12-16T00:32:32.164Z,7.73
2022-12-16T00:35:01.802Z,7.03
2022-12-16T00:37:29.952Z,7.32
2022-12-16T00:39:58.195Z,7.60
2022-12-16T00:42:26.412Z,6.65
2022-12-16T00:44:54.600Z,7.17
2022-12-16T00:47:23.066Z,6.93
2022-12-16T00:49:51.291Z,6.57
2022-12-16T00:52:21.037Z,7.55
2022-12-16T00:54:49.226Z,7.03
2022-12-16T00:57:17.519Z,6.60
2022-12-16T00:59:45.710Z,7.30
2022-12-16T01:02:14.100Z,6.57
2022-12-16T01:04:42.540Z,6.80
2022-12-16T01:07:10.944Z,6.90
2022-12-16T01:09:40.523Z,6.03
2022-12-16T01:12:08.953Z,5.77
2022-12-16T01:14:37.219Z,7.10
2022-12-16T01:17:05.481Z,6.20
2022-12-16T01:19:33.735Z,6.57
2022-12-16T01:22:01.952Z,6.47
2022-12-16T01:24:30.177Z,6.27
2022-12-16T01:26:59.734Z,5.60
2022-12-16T01:29:27.991Z,6.27
2022-12-16T01:31:56.249Z,7.17
2022-12-16T01:34:25.168Z,6.27
2022-12-16T01:36:53.413Z,6.57
2022-12-16T01:39:21.711Z,6.88
2022-12-16T01:41:50.028Z,6.20
2022-12-16T01:44:22.084Z,6.75
2022-12-16T01:46:52.358Z,6.00
2022-12-16T01:49:25.924Z,6.47
2022-12-16T01:51:57.555Z,6.60
2022-12-16T01:54:30.440Z,5.68
2022-12-16T01:57:03.034Z,5.97
2022-12-16T01:59:35.397Z,6.72
2022-12-16T02:02:04.852Z,6.38
2022-12-16T02:04:33.427Z,6.40
2022-12-16T02:07:02.793Z,6.30
2022-12-16T02:09:31.015Z,5.93
2022-12-16T02:12:15.657Z,6.17
2022-12-16T02:15:14.557Z,6.27
2022-12-16T02:17:48.725Z,6.30
2022-12-16T02:20:49.979Z,5.90
2022-12-16T02:23:51.622Z,6.35
2022-12-16T02:26:48.111Z,6.47
2022-12-16T02:29:52.739Z,6.43
2022-12-16T02:32:31.029Z,5.47
2022-12-16T02:35:06.416Z,7.20
2022-12-16T02:37:39.996Z,6.23
2022-12-16T02:40:17.855Z,6.40
2022-12-16T02:42:51.823Z,5.70
2022-12-16T02:45:24.202Z,5.70
2022-12-16T02:47:54.271Z,5.17
2022-12-16T02:50:24.955Z,5.50
2022-12-16T02:52:55.562Z,5.87
2022-12-16T02:55:29.830Z,5.87
2022-12-16T02:58:17.055Z,5.80
2022-12-16T03:00:57.733Z,6.33
2022-12-16T03:03:36.021Z,5.47
2022-12-16T03:06:06.100Z,6.07
2022-12-16T03:08:38.175Z,6.00
2022-12-16T03:11:08.273Z,5.37
2022-12-16T03:13:41.008Z,5.47
2022-12-16T03:16:11.544Z,5.60
2022-12-16T03:18:45.415Z,5.23
2022-12-16T03:21:15.443Z,5.00
2022-12-16T03:23:49.484Z,5.50
2022-12-16T03:26:23.115Z,5.47
2022-12-16T03:28:56.653Z,5.00
2022-12-16T03:31:34.532Z,5.10
2022-12-16T03:34:10.849Z,4.70
2022-12-16T03:36:40.952Z,4.73
2022-12-16T03:39:10.416Z,5.20
2022-12-16T03:41:39.273Z,4.60
2022-12-16T03:44:09.492Z,4.80
2022-12-16T03:46:38.119Z,4.83
2022-12-16T03:49:07.839Z,5.00
2022-12-16T03:51:36.134Z,4.90
2022-12-16T03:54:04.301Z,4.17
2022-12-16T03:56:32.519Z,4.80
2022-12-16T03:59:00.711Z,5.23
2022-12-16T04:01:29.052Z,5.03
2022-12-16T04:03:57.421Z,4.63
2022-12-16T04:06:27.061Z,5.00
2022-12-16T04:08:55.237Z,4.43
2022-12-16T04:11:40.595Z,4.97
2022-12-16T04:14:26.622Z,5.23
2022-12-16T04:17:12.813Z,5.17
2022-12-16T04:20:01.136Z,4.93
2022-12-16T04:22:50.548Z,5.03
2022-12-16T04:25:22.112Z,4.77
2022-12-16T04:27:50.296Z,4.88
2022-12-16T04:30:19.178Z,4.97
2022-12-16T04:33:07.615Z,5.60
2022-12-16T04:35:53.545Z,4.63
2022-12-16T04:38:40.448Z,5.03
2022-12-16T04:41:25.981Z,4.37
2022-12-16T04:44:11.687Z,4.57
2022-12-16T04:46:57.558Z,4.37
2022-12-16T04:49:42.934Z,5.37
2022-12-16T04:52:28.852Z,3.97
2022-12-16T04:55:15.959Z,4.33
2022-12-16T04:58:03.291Z,4.53
2022-12-16T05:00:48.650Z,4.40
2022-12-16T05:03:30.933Z,4.60
2022-12-16T05:06:16.851Z,4.27
2022-12-16T05:09:02.336Z,5.27
2022-12-16T05:11:49.266Z,5.53
2022-12-16T05:14:35.154Z,4.70
2022-12-16T05:17:20.887Z,5.23
2022-12-16T05:20:06.191Z,5.17
2022-12-16T05:22:51.732Z,5.07
2022-12-16T05:25:37.154Z,4.97
2022-12-16T05:28:24.711Z,5.33
2022-12-16T05:31:10.608Z,4.47
2022-12-16T05:33:56.352Z,4.83
2022-12-16T05:36:41.809Z,5.77
2022-12-16T05:39:27.892Z,5.70
2022-12-16T05:42:13.824Z,5.67
2022-12-16T05:45:00.940Z,5.97
2022-12-16T05:47:46.679Z,5.40
2022-12-16T05:50:32.539Z,5.17
2022-12-16T05:53:18.394Z,5.83
2022-12-16T05:56:04.051Z,6.37
2022-12-16T05:58:49.856Z,4.83
2022-12-16T06:01:36.917Z,5.70
2022-12-16T06:04:22.796Z,5.53
2022-12-16T06:07:08.341Z,5.60
2022-12-16T06:09:56.891Z,6.33
2022-12-16T06:12:42.987Z,6.60
2022-12-16T06:15:29.545Z,5.70
2022-12-16T06:18:16.625Z,6.30
2022-12-16T06:21:05.149Z,5.60
2022-12-16T06:23:50.968Z,5.50
2022-12-16T06:26:36.340Z,5.47
2022-12-16T06:29:21.758Z,4.93
2022-12-16T06:32:07.560Z,5.13
2022-12-16T06:34:54.584Z,5.20
2022-12-16T06:37:40.368Z,6.30
2022-12-16T06:40:27.394Z,8.37
2022-12-16T06:43:12.678Z,8.93
2022-12-16T06:45:58.801Z,11.13
2022-12-16T06:48:44.637Z,9.00
2022-12-16T06:51:31.530Z,7.47
2022-12-16T06:54:17.124Z,7.80
2022-12-16T06:57:03.060Z,6.35
2022-12-16T06:59:57.642Z,6.43
2022-12-16T07:02:43.233Z,6.53
2022-12-16T07:05:29.111Z,6.87
2022-12-16T07:08:16.148Z,6.37
2022-12-16T07:11:15.560Z,6.17
2022-12-16T07:14:02.059Z,6.27
2022-12-16T07:16:47.775Z,6.37
2022-12-16T07:19:34.975Z,6.87
2022-12-16T07:22:20.487Z,6.67
2022-12-16T07:25:07.599Z,6.67
2022-12-16T07:27:53.366Z,6.50
2022-12-16T07:30:38.866Z,5.43
2022-12-16T07:33:24.138Z,5.47
2022-12-16T07:36:09.700Z,7.23
2022-12-16T07:38:55.057Z,8.43
2022-12-16T07:41:42.164Z,7.63
2022-12-16T07:44:27.916Z,6.57
2022-12-16T07:47:13.584Z,5.70
2022-12-16T07:50:13.596Z,5.60
2022-12-16T07:52:59.070Z,7.00
2022-12-16T07:55:44.630Z,8.43
2022-12-16T07:58:31.724Z,7.00
2022-12-16T08:01:17.144Z,5.40
2022-12-16T08:04:03.142Z,5.57
2022-12-16T08:06:48.676Z,5.23
2022-12-16T08:09:33.993Z,5.60
2022-12-16T08:12:20.983Z,5.27
2022-12-16T08:15:07.981Z,5.70
2022-12-16T08:17:54.265Z,6.30
2022-12-16T08:20:41.200Z,6.07
2022-12-16T08:23:26.594Z,6.23
2022-12-16T08:26:12.155Z,5.90
2022-12-16T08:29:05.417Z,5.30
2022-12-16T08:32:04.470Z,5.57
2022-12-16T08:34:50.017Z,5.80
2022-12-16T08:37:35.796Z,6.00
2022-12-16T08:40:37.217Z,5.73
2022-12-16T08:43:22.766Z,4.65
2022-12-16T08:46:12.611Z,5.65
2022-12-16T08:48:59.996Z,5.13
2022-12-16T08:51:45.873Z,6.20
2022-12-16T08:54:31.682Z,5.35
2022-12-16T08:57:17.144Z,5.30
2022-12-16T09:00:04.215Z,6.87
2022-12-16T09:02:50.180Z,6.50
2022-12-16T09:05:37.841Z,6.57
2022-12-16T09:08:24.512Z,6.78
2022-12-16T09:11:09.841Z,7.07
2022-12-16T09:13:55.442Z,7.35
2022-12-16T09:16:41.431Z,7.78
2022-12-16T09:19:28.990Z,7.82
2022-12-16T09:22:15.993Z,9.17
2022-12-16T09:25:01.765Z,9.07
2022-12-16T09:27:47.074Z,8.27
2022-12-16T09:30:32.579Z,8.40
2022-12-16T09:33:20.719Z,7.60
2022-12-16T09:36:06.102Z,9.07
2022-12-16T09:38:53.282Z,8.55
2022-12-16T09:41:51.631Z,7.88
2022-12-16T09:44:42.938Z,8.65
2022-12-16T09:47:39.569Z,7.38
2022-12-16T09:50:35.859Z,7.20
2022-12-16T09:53:24.072Z,7.63
2022-12-16T09:56:11.511Z,8.73
2022-12-16T09:59:01.910Z,8.27
2022-12-16T10:01:51.463Z,7.18
2022-12-16T10:04:37.035Z,8.25
2022-12-16T10:07:24.654Z,7.43
2022-12-16T10:10:21.036Z,7.35
2022-12-16T10:13:14.528Z,7.38
2022-12-16T10:16:10.268Z,7.32
2022-12-16T10:19:06.170Z,6.78
2022-12-16T10:21:57.501Z,6.85
2022-12-16T10:24:52.569Z,6.60
2022-12-16T10:27:48.715Z,6.70
2022-12-16T10:30:35.821Z,7.00
2022-12-16T10:33:21.817Z,6.43
2022-12-16T10:36:11.514Z,7.47
2022-12-16T10:39:00.272Z,8.30
2022-12-16T10:41:50.443Z,7.65
2022-12-16T10:44:42.982Z,7.47
2022-12-16T10:47:30.776Z,6.95
2022-12-16T10:50:17.835Z,6.40
2022-12-16T10:53:09.221Z,7.00
2022-12-16T10:56:05.516Z,6.75
2022-12-16T10:58:57.973Z,6.50
2022-12-16T11:01:45.906Z,6.35
2022-12-16T11:04:55.896Z,6.80
2022-12-16T11:07:51.240Z,7.15
2022-12-16T11:10:53.016Z,6.75
2022-12-16T11:13:50.623Z,6.75
2022-12-16T11:16:39.590Z,6.45
2022-12-16T11:19:38.295Z,6.38
2022-12-16T11:22:32.206Z,6.43
2022-12-16T11:25:24.296Z,6.38
2022-12-16T11:31:13.107Z,5.90
2022-12-16T11:33:58.579Z,6.70
2022-12-16T11:36:45.780Z,6.32
2022-12-16T11:39:35.130Z,6.32
2022-12-16T11:42:22.435Z,6.88
2022-12-16T11:45:11.502Z,7.00
2022-12-16T11:47:59.902Z,6.00
2022-12-16T11:50:47.227Z,6.72
2022-12-16T11:53:48.784Z,6.53
2022-12-16T11:56:41.680Z,7.35
2022-12-16T11:59:36.460Z,7.15
2022-12-16T12:02:30.956Z,7.28
2022-12-16T12:05:16.385Z,7.20
2022-12-16T12:08:10.923Z,7.13
2022-12-16T12:11:16.014Z,7.15
2022-12-16T12:14:13.794Z,6.90
2022-12-16T12:17:15.022Z,6.85
2022-12-16T12:20:12.515Z,7.20
2022-12-16T12:22:59.089Z,6.07
2022-12-16T12:25:55.469Z,6.53
2022-12-16T12:28:51.629Z,6.55
2022-12-16T12:31:48.630Z,6.85
2022-12-16T12:34:43.839Z,6.30
2022-12-16T12:37:40.842Z,7.18
2022-12-16T12:40:42.908Z,7.20
2022-12-16T12:43:43.316Z,7.03
2022-12-16T12:46:36.276Z,6.82
2022-12-16T12:49:30.152Z,6.90
2022-12-16T12:52:22.763Z,6.53
2022-12-16T12:55:13.460Z,6.93
2022-12-16T12:58:02.146Z,7.70
2022-12-16T13:00:57.307Z,6.72
2022-12-16T13:03:51.240Z,7.15
2022-12-16T13:06:47.633Z,6.88
2022-12-16T13:09:48.914Z,7.40
2022-12-16T13:12:46.828Z,7.20
2022-12-16T13:15:54.361Z,6.40
2022-12-16T13:18:47.715Z,7.25
2022-12-16T13:22:04.151Z,7.65
2022-12-16T13:25:04.896Z,7.07
2022-12-16T13:28:10.183Z,6.90
2022-12-16T13:30:56.060Z,7.32
2022-12-16T13:33:47.661Z,6.85
2022-12-16T13:36:35.524Z,6.35
2022-12-16T13:39:39.922Z,7.43
2022-12-16T13:42:40.386Z,6.85
2022-12-16T13:45:43.962Z,6.38
2022-12-16T13:48:49.579Z,7.30
2022-12-16T13:52:20.622Z,7.15
2022-12-16T13:55:26.783Z,7.13
2022-12-16T13:58:16.770Z,7.90
2022-12-16T14:01:02.511Z,7.82
2022-12-16T14:03:59.970Z,7.93
2022-12-16T14:06:48.043Z,7.85
2022-12-16T14:09:45.039Z,8.35
2022-12-16T14:12:56.476Z,9.25
2022-12-16T14:15:47.304Z,8.80
2022-12-16T14:18:45.040Z,8.43
2022-12-16T14:21:38.669Z,8.70
2022-12-16T14:24:31.447Z,8.43
2022-12-16T14:27:23.375Z,7.32
2022-12-16T14:30:10.379Z,7.95
2022-12-16T14:32:55.743Z,8.95
2022-12-16T14:35:43.367Z,9.32
2022-12-16T14:38:41.302Z,8.68
2022-12-16T14:41:30.663Z,8.88
2022-12-16T14:44:16.847Z,8.88
2022-12-16T14:47:09.135Z,9.32
2022-12-16T14:49:51.331Z,8.93
2022-12-16T14:52:39.481Z,9.68
2022-12-16T14:55:34.479Z,8.07
2022-12-16T14:58:30.047Z,7.38
2022-12-16T15:01:17.895Z,7.82
2022-12-16T15:04:06.907Z,7.75
2022-12-16T15:07:10.623Z,7.20
2022-12-16T15:09:59.578Z,7.60
2022-12-16T15:12:48.542Z,8.98
2022-12-16T15:15:38.359Z,10.57
2022-12-16T15:18:24.544Z,9.95
2022-12-16T15:21:13.338Z,9.55
2022-12-16T15:24:01.073Z,10.50
2022-12-16T15:26:48.922Z,11.60
2022-12-16T15:29:48.051Z,11.63
2022-12-16T15:32:48.800Z,11.40
2022-12-16T15:35:49.395Z,11.47
2022-12-16T15:38:47.501Z,11.60
2022-12-16T15:41:42.608Z,11.07
2022-12-16T15:44:35.312Z,10.82
2022-12-16T15:47:21.341Z,10.13
2022-12-16T15:50:08.604Z,10.13
2022-12-16T15:53:02.151Z,10.77
2022-12-16T15:55:52.032Z,11.00
2022-12-16T15:58:45.171Z,10.93
2022-12-16T16:01:32.514Z,10.33
2022-12-16T16:04:18.665Z,10.10
2022-12-16T16:07:09.340Z,10.77
2022-12-16T16:09:56.604Z,11.47
2022-12-16T16:12:44.222Z,10.40
2022-12-16T16:15:31.945Z,10.90
2022-12-16T16:18:19.999Z,11.10
2022-12-16T16:21:05.668Z,11.70
2022-12-16T16:23:51.237Z,11.33
2022-12-16T16:26:39.554Z,11.63
2022-12-16T16:29:28.802Z,12.03
2022-12-16T16:32:17.008Z,10.17
2022-12-16T16:35:02.633Z,10.30
2022-12-16T16:37:48.208Z,10.70
2022-12-16T16:40:37.589Z,11.10
2022-12-16T16:43:23.139Z,11.60
2022-12-16T16:46:13.482Z,12.47
2022-12-16T16:48:59.792Z,12.47
2022-12-16T16:51:45.703Z,12.53
2022-12-16T16:54:31.290Z,12.67
2022-12-16T16:57:19.337Z,13.43
2022-12-16T17:00:05.297Z,12.37
2022-12-16T17:02:52.419Z,11.53
2022-12-16T17:05:38.363Z,12.67
2022-12-16T17:08:23.986Z,12.27
2022-12-16T17:11:09.496Z,11.90
2022-12-16T17:13:55.197Z,12.50
2022-12-16T17:16:40.656Z,13.73
2022-12-16T17:19:24.127Z,12.93
2022-12-16T17:22:09.811Z,12.10
2022-12-16T17:24:55.428Z,12.97
2022-12-16T17:27:42.945Z,12.23
2022-12-16T17:30:34.967Z,12.20
2022-12-16T17:36:09.302Z,10.90
2022-12-16T17:38:58.352Z,11.33
2022-12-16T17:41:45.711Z,12.60
2022-12-16T17:44:31.783Z,12.47
2022-12-16T17:47:17.244Z,11.33
2022-12-16T17:50:03.217Z,12.77
2022-12-16T17:52:50.467Z,11.97
2022-12-16T17:55:36.057Z,11.97
2022-12-16T17:58:21.711Z,12.10
2022-12-16T18:01:07.138Z,12.57
2022-12-16T18:03:52.624Z,13.17
2022-12-16T18:06:39.113Z,13.47
2022-12-16T18:09:26.245Z,12.17
2022-12-16T18:12:11.630Z,12.50
2022-12-16T18:14:57.484Z,11.00
2022-12-16T18:17:42.886Z,12.17
2022-12-16T18:20:28.906Z,12.03
2022-12-16T18:23:11.039Z,11.50
2022-12-16T18:25:58.109Z,12.43
2022-12-16T18:28:43.469Z,12.13
2022-12-16T18:31:29.161Z,12.67
2022-12-16T18:34:14.896Z,12.93
2022-12-16T18:37:00.323Z,12.77
2022-12-16T18:39:45.757Z,12.53
2022-12-16T18:42:32.755Z,13.13
2022-12-16T18:45:18.672Z,12.30
2022-12-16T18:48:04.346Z,12.67
2022-12-16T18:50:49.754Z,13.00
2022-12-16T18:53:36.040Z,13.67
2022-12-16T18:56:23.962Z,14.77
2022-12-16T18:59:11.264Z,14.00
2022-12-16T19:01:57.184Z,13.40
2022-12-16T19:04:43.267Z,13.43
2022-12-16T19:07:32.850Z,13.90
2022-12-16T19:10:33.730Z,12.60
2022-12-16T19:13:21.671Z,12.83
2022-12-16T19:16:14.164Z,13.20
2022-12-16T19:19:00.447Z,13.30
2022-12-16T19:21:51.980Z,12.70
2022-12-16T19:24:42.008Z,12.40
2022-12-16T19:27:27.685Z,12.20
2022-12-16T19:30:13.579Z,13.53
2022-12-16T19:33:00.483Z,12.57
2022-12-16T19:35:46.050Z,13.10
2022-12-16T19:38:32.255Z,12.27
2022-12-16T19:41:17.628Z,12.87
2022-12-16T19:44:11.433Z,13.63
2022-12-16T19:46:57.055Z,13.77
2022-12-16T19:49:44.994Z,12.77
2022-12-16T19:52:31.043Z,12.53
2022-12-16T19:55:17.671Z,12.37
2022-12-16T19:58:06.987Z,13.33
2022-12-16T20:00:52.384Z,13.17
2022-12-16T20:03:39.487Z,12.27
2022-12-16T20:06:27.861Z,12.67
2022-12-16T20:09:15.791Z,11.37
2022-12-16T20:12:00.931Z,12.70
2022-12-16T20:14:47.051Z,11.80
2022-12-16T20:17:32.810Z,11.70
2022-12-16T20:20:32.810Z,12.10
2022-12-16T20:23:20.186Z,11.67
2022-12-16T20:26:13.453Z,11.90
2022-12-16T20:28:59.441Z,12.30
2022-12-16T20:31:44.953Z,12.00
2022-12-16T20:34:30.962Z,13.07
2022-12-16T20:37:16.656Z,11.83
2022-12-16T20:40:18.281Z,12.73
2022-12-16T20:43:04.040Z,12.32
2022-12-16T20:45:49.826Z,12.03
2022-12-16T20:48:35.985Z,12.10
2022-12-16T20:54:29.468Z,11.07
2022-12-16T20:57:16.459Z,11.03
2022-12-16T21:00:13.412Z,10.53
2022-12-16T21:02:58.916Z,10.67
2022-12-16T21:05:44.502Z,10.53
2022-12-16T21:08:29.965Z,10.10
2022-12-16T21:11:15.508Z,9.33
2022-12-16T21:14:02.438Z,11.20
2022-12-16T21:16:48.541Z,10.37
2022-12-16T21:19:34.056Z,10.07
2022-12-16T21:22:20.025Z,10.73
2022-12-16T21:25:13.786Z,10.87
2022-12-16T21:27:59.237Z,10.80
2022-12-16T21:30:46.003Z,11.03
2022-12-16T21:33:39.336Z,10.80
2022-12-16T21:36:25.684Z,11.13
2022-12-16T21:39:11.150Z,10.70
2022-12-16T21:41:56.642Z,11.20
2022-12-16T21:44:42.015Z,10.40
2022-12-16T21:47:29.103Z,11.30
2022-12-16T21:50:14.511Z,11.33
2022-12-16T21:53:01.063Z,10.83
2022-12-16T21:55:46.560Z,11.30
2022-12-16T21:58:32.072Z,11.17
2022-12-16T22:01:22.141Z,10.50
2022-12-16T22:04:08.935Z,10.17
2022-12-16T22:06:55.075Z,11.63
2022-12-16T22:09:40.600Z,10.33
2022-12-16T22:12:26.158Z,11.53
2022-12-16T22:15:11.622Z,11.93
2022-12-16T22:21:14.191Z,10.30
2022-12-16T22:23:59.672Z,11.97
2022-12-16T22:26:45.395Z,10.87
2022-12-16T22:29:27.449Z,9.70
2022-12-16T22:32:12.906Z,11.03
2022-12-16T22:34:58.207Z,10.73
2022-12-16T22:36:21.571Z,11.10
2022-12-16T22:37:56.642Z,11.07
2022-12-16T22:40:42.357Z,10.67
2022-12-16T22:43:27.845Z,10.67
2022-12-16T22:46:21.165Z,9.70
2022-12-16T22:49:07.161Z,11.27
2022-12-16T22:51:52.670Z,11.23
2022-12-16T22:54:40.621Z,10.57
2022-12-16T22:57:26.003Z,11.37
2022-12-16T23:00:11.423Z,11.10
2022-12-16T23:02:56.981Z,11.00
2022-12-16T23:05:42.971Z,10.13
2022-12-16T23:08:28.537Z,10.80
2022-12-16T23:11:16.906Z,10.73
2022-12-16T23:14:02.574Z,11.10
2022-12-16T23:16:48.399Z,10.57
2022-12-16T23:19:33.916Z,11.67
2022-12-16T23:22:19.288Z,11.17
2022-12-16T23:25:07.014Z,10.57
2022-12-16T23:27:54.243Z,12.37
2022-12-16T23:30:40.046Z,11.13
2022-12-16T23:33:25.546Z,12.00
2022-12-16T23:36:10.986Z,11.03
2022-12-16T23:38:56.372Z,10.40
2022-12-16T23:41:42.258Z,11.90
2022-12-16T23:44:29.333Z,11.20
2022-12-16T23:47:14.696Z,11.83
2022-12-16T23:50:00.115Z,11.80
2022-12-16T23:52:45.611Z,11.43
2022-12-16T23:55:31.130Z,12.23
2022-12-16T23:58:17.224Z,11.53
